Time;durP1;ratioP1;P1;durP2;ratioP2;P2;SDS_P1;SDS_P2;PMS_P1;PMS_P2;Temp;Humidity;BMP_temperature;BMP_pressure;BME280_temperature;BME280_humidity;BME280_pressure;Samples;Min_cycle;Max_cycle;Signal;HPM_P1;HPM_P2
2023/09/12 00:02:06;;;;;;;1.52;1.42;;;14.00;99.90;;;;;;5090227;28;20054;-76
2023/09/12 00:04:32;;;;;;;2.80;1.45;;;13.90;99.90;;;;;;5089920;28;20131;-76
2023/09/12 00:06:57;;;;;;;3.13;1.48;;;13.90;99.90;;;;;;5089887;28;20024;-75
2023/09/12 00:09:23;;;;;;;3.72;1.52;;;13.80;99.90;;;;;;5089382;28;20028;-74
2023/09/12 00:11:49;;;;;;;3.17;1.77;;;13.70;99.90;;;;;;5090289;28;20032;-74
2023/09/12 00:14:16;;;;;;;2.30;1.80;;;13.60;99.90;;;;;;5090378;28;20051;-75
2023/09/12 00:16:41;;;;;;;8.45;2.00;;;13.50;99.90;;;;;;5094117;28;20089;-75
2023/09/12 00:19:07;;;;;;;5.82;2.05;;;13.50;99.90;;;;;;5093600;28;20035;-76
2023/09/12 00:21:33;;;;;;;3.40;1.60;;;13.40;99.90;;;;;;5092868;28;20031;-75
2023/09/12 00:23:59;;;;;;;8.80;1.95;;;13.40;99.90;;;;;;5093705;28;20063;-77
2023/09/12 00:26:24;;;;;;;7.82;1.58;;;13.30;99.90;;;;;;5093349;28;20087;-76
2023/09/12 00:28:50;;;;;;;3.55;1.50;;;13.30;99.90;;;;;;5093372;28;20024;-75
2023/09/12 00:31:16;;;;;;;3.35;1.50;;;13.20;99.90;;;;;;5092769;28;20039;-76
2023/09/12 00:33:41;;;;;;;5.55;1.63;;;13.20;99.90;;;;;;5093381;28;20149;-76
2023/09/12 00:36:07;;;;;;;3.15;1.30;;;13.10;99.90;;;;;;5093899;28;20465;-76
2023/09/12 00:38:33;;;;;;;4.97;1.95;;;13.10;99.90;;;;;;5092697;28;20016;-75
2023/09/12 00:40:59;;;;;;;6.43;1.73;;;13.10;99.90;;;;;;5093597;28;20028;-76
2023/09/12 00:43:24;;;;;;;3.97;1.80;;;13.10;99.90;;;;;;5093299;28;20055;-77
2023/09/12 00:45:50;;;;;;;4.85;1.25;;;13.10;99.90;;;;;;5094491;28;20052;-77
2023/09/12 00:48:18;;;;;;;6.47;1.63;;;13.10;99.90;;;;;;5093411;28;20020;-78
2023/09/12 00:50:46;;;;;;;7.95;1.63;;;13.10;99.90;;;;;;5094104;28;20028;-77
2023/09/12 00:53:12;;;;;;;3.20;1.42;;;13.00;99.90;;;;;;5075892;28;20028;-77
2023/09/12 00:55:43;;;;;;;6.72;1.60;;;13.00;99.90;;;;;;5109098;28;20050;-77
2023/09/12 00:58:08;;;;;;;5.43;1.60;;;13.10;99.90;;;;;;5093626;28;20113;-77
2023/09/12 01:00:34;;;;;;;4.95;2.00;;;13.10;99.90;;;;;;5092384;28;20116;-77
2023/09/12 01:03:00;;;;;;;5.40;2.13;;;13.10;99.90;;;;;;5093022;28;20145;-77
2023/09/12 01:05:28;;;;;;;4.28;1.60;;;13.10;99.90;;;;;;5092743;28;20024;-76
2023/09/12 01:07:54;;;;;;;4.63;1.98;;;13.10;99.90;;;;;;5093197;28;20026;-75
2023/09/12 01:10:20;;;;;;;2.47;1.70;;;13.20;99.90;;;;;;5057563;28;20397;-77
2023/09/12 01:12:46;;;;;;;5.90;2.00;;;13.10;99.90;;;;;;5093255;28;20169;-77
2023/09/12 01:15:14;;;;;;;5.20;2.22;;;13.20;99.90;;;;;;5092596;28;20027;-77
2023/09/12 01:17:43;;;;;;;6.88;1.98;;;13.10;99.90;;;;;;5074151;28;20028;-77
2023/09/12 01:20:19;;;;;;;6.50;2.17;;;13.10;99.90;;;;;;5092417;28;20384;-77
2023/09/12 01:23:11;;;;;;;2.58;1.85;;;13.10;99.90;;;;;;5092786;28;20120;-76
2023/09/12 01:25:52;;;;;;;4.40;2.27;;;13.20;99.90;;;;;;5071934;28;20721;-76
2023/09/12 01:28:17;;;;;;;5.05;2.42;;;13.20;99.90;;;;;;5071470;28;20020;-77
2023/09/12 01:30:48;;;;;;;10.60;2.58;;;13.20;99.90;;;;;;5087867;28;20031;-76
2023/09/12 01:33:14;;;;;;;5.53;2.30;;;13.20;99.90;;;;;;5092283;28;20020;-76
2023/09/12 01:35:40;;;;;;;5.13;2.42;;;13.20;99.90;;;;;;5091390;28;20461;-76
2023/09/12 01:38:05;;;;;;;6.50;3.17;;;13.20;99.90;;;;;;5092601;28;20028;-76
2023/09/12 01:40:46;;;;;;;9.80;3.30;;;13.20;99.90;;;;;;5091495;28;20035;-77
2023/09/12 01:43:16;;;;;;;8.07;2.90;;;13.10;99.90;;;;;;5092236;28;20112;-76
2023/09/12 01:45:43;;;;;;;6.00;3.28;;;13.10;99.90;;;;;;5091600;28;20192;-76
2023/09/12 01:48:11;;;;;;;7.97;2.95;;;13.00;99.90;;;;;;5091880;28;20044;-76
2023/09/12 01:50:37;;;;;;;4.88;2.55;;;13.20;99.90;;;;;;5091196;28;20040;-76
2023/09/12 01:53:03;;;;;;;8.85;3.22;;;13.20;99.90;;;;;;5092276;28;20028;-75
2023/09/12 01:55:30;;;;;;;5.95;2.20;;;13.10;99.90;;;;;;5091578;28;20031;-75
2023/09/12 01:57:57;;;;;;;7.32;2.15;;;13.20;99.90;;;;;;5107682;28;20100;-77
2023/09/12 02:00:23;;;;;;;9.07;2.10;;;13.10;99.90;;;;;;5091446;28;20063;-77
2023/09/12 02:02:50;;;;;;;6.63;2.35;;;13.20;99.90;;;;;;5091833;28;20036;-76
2023/09/12 02:05:25;;;;;;;8.32;2.00;;;13.10;99.90;;;;;;5091815;28;20050;-77
2023/09/12 02:07:50;;;;;;;4.88;2.10;;;13.10;99.90;;;;;;5092002;28;20024;-77
2023/09/12 02:10:16;;;;;;;6.97;2.17;;;13.10;99.90;;;;;;5091768;28;20024;-76
2023/09/12 02:12:42;;;;;;;4.40;1.83;;;13.10;99.90;;;;;;5091256;28;20485;-77
2023/09/12 02:15:08;;;;;;;4.38;1.58;;;13.00;99.90;;;;;;5091504;28;20396;-77
2023/09/12 02:17:34;;;;;;;7.50;1.63;;;13.00;99.90;;;;;;5091228;28;20403;-77
2023/09/12 02:20:00;;;;;;;5.15;1.50;;;12.90;99.90;;;;;;5091266;28;20028;-77
2023/09/12 02:22:25;;;;;;;7.45;1.50;;;12.90;99.90;;;;;;5091188;28;20028;-77
2023/09/12 02:24:51;;;;;;;3.58;1.30;;;12.80;99.90;;;;;;5091270;28;20488;-77
2023/09/12 02:27:17;;;;;;;4.97;1.50;;;12.80;99.90;;;;;;5091309;28;20153;-77
2023/09/12 02:29:43;;;;;;;2.58;1.27;;;12.80;99.90;;;;;;5091536;28;20024;-77
2023/09/12 02:32:09;;;;;;;2.40;1.65;;;12.90;99.90;;;;;;5091553;28;20032;-76
2023/09/12 02:34:35;;;;;;;4.68;1.33;;;12.80;99.90;;;;;;5091063;28;20055;-77
2023/09/12 02:37:01;;;;;;;2.97;1.27;;;12.80;99.90;;;;;;5092033;28;20085;-76
2023/09/12 02:39:26;;;;;;;5.05;1.35;;;12.70;99.90;;;;;;5090102;28;20099;-76
2023/09/12 02:41:52;;;;;;;5.03;1.20;;;12.70;99.90;;;;;;5091101;28;20032;-76
2023/09/12 02:44:18;;;;;;;3.75;1.23;;;12.70;99.90;;;;;;5091445;28;20138;-76
2023/09/12 02:46:43;;;;;;;3.72;1.00;;;12.60;99.90;;;;;;5090581;28;20044;-76
2023/09/12 02:49:09;;;;;;;2.97;0.98;;;12.60;99.90;;;;;;5091432;28;20032;-76
2023/09/12 02:51:38;;;;;;;3.92;1.08;;;12.60;99.90;;;;;;5090622;28;20074;-76
2023/09/12 02:54:04;;;;;;;5.75;1.20;;;12.50;99.90;;;;;;5091579;28;20040;-76
2023/09/12 02:56:30;;;;;;;4.05;1.30;;;12.60;99.90;;;;;;5090745;28;20449;-77
2023/09/12 02:58:56;;;;;;;3.53;1.40;;;12.50;99.90;;;;;;5091158;28;20020;-76
2023/09/12 03:01:22;;;;;;;5.28;1.20;;;12.60;99.90;;;;;;5090800;28;20115;-77
2023/09/12 03:03:49;;;;;;;4.22;1.35;;;12.60;99.90;;;;;;5090747;28;20501;-76
2023/09/12 03:06:15;;;;;;;1.92;1.40;;;12.60;99.90;;;;;;5090929;28;20028;-76
2023/09/12 03:08:41;;;;;;;7.70;1.52;;;12.60;99.90;;;;;;5090421;28;20028;-76
2023/09/12 03:11:07;;;;;;;4.10;1.30;;;12.60;99.90;;;;;;5090417;28;20032;-75
2023/09/12 03:13:34;;;;;;;5.15;1.17;;;12.50;99.90;;;;;;5090354;28;20043;-75
2023/09/12 03:16:00;;;;;;;4.00;1.35;;;12.60;99.90;;;;;;5090704;28;20025;-75
2023/09/12 03:18:26;;;;;;;5.57;1.85;;;12.60;99.90;;;;;;5090034;28;20016;-77
2023/09/12 03:20:52;;;;;;;6.00;1.55;;;12.60;99.90;;;;;;5090866;28;20016;-76
2023/09/12 03:23:19;;;;;;;5.03;1.38;;;12.70;99.90;;;;;;5090609;28;20028;-75
2023/09/12 03:25:45;;;;;;;2.05;1.20;;;12.60;99.90;;;;;;5090210;28;20024;-75
2023/09/12 03:28:11;;;;;;;4.65;1.50;;;12.70;99.90;;;;;;5090519;28;20020;-74
2023/09/12 03:30:37;;;;;;;3.55;1.20;;;12.70;99.90;;;;;;5090041;28;20498;-75
2023/09/12 03:33:04;;;;;;;3.30;1.40;;;12.70;99.90;;;;;;5091042;28;20063;-75
2023/09/12 03:35:31;;;;;;;3.50;1.30;;;12.70;99.90;;;;;;5090106;28;20462;-76
2023/09/12 03:37:56;;;;;;;2.78;1.10;;;12.80;99.90;;;;;;5090636;28;20032;-76
2023/09/12 03:40:22;;;;;;;3.25;1.27;;;12.80;99.90;;;;;;5090439;28;20024;-76
2023/09/12 03:42:48;;;;;;;4.50;1.08;;;12.70;99.90;;;;;;5089607;28;20032;-76
2023/09/12 03:45:14;;;;;;;4.30;1.40;;;12.70;99.90;;;;;;5090472;28;20111;-75
2023/09/12 03:47:39;;;;;;;2.42;1.15;;;12.70;99.90;;;;;;5089424;28;20435;-76
2023/09/12 03:50:05;;;;;;;3.42;1.23;;;12.80;99.90;;;;;;5092190;28;20043;-75
2023/09/12 03:52:31;;;;;;;3.70;1.33;;;12.90;99.90;;;;;;5093943;28;20055;-76
2023/09/12 03:54:57;;;;;;;3.45;1.25;;;12.90;99.90;;;;;;5094428;28;20410;-75
2023/09/12 03:57:23;;;;;;;3.47;1.23;;;13.00;99.90;;;;;;5094045;28;20039;-75
2023/09/12 03:59:49;;;;;;;1.60;1.50;;;13.00;99.90;;;;;;5093668;28;20035;-76
2023/09/12 04:02:14;;;;;;;4.63;1.48;;;13.00;99.90;;;;;;5094180;28;20107;-77
2023/09/12 04:04:40;;;;;;;3.47;1.70;;;13.10;99.90;;;;;;5093522;28;20016;-75
2023/09/12 04:07:06;;;;;;;4.63;1.38;;;13.10;99.90;;;;;;5093578;28;20099;-75
2023/09/12 04:09:31;;;;;;;8.95;2.10;;;13.10;99.90;;;;;;5093489;28;20043;-75
2023/09/12 04:11:57;;;;;;;4.28;1.63;;;13.10;99.90;;;;;;5093692;28;20039;-76
2023/09/12 04:14:23;;;;;;;5.18;1.75;;;13.10;99.90;;;;;;5094273;28;20034;-77
2023/09/12 04:16:49;;;;;;;2.72;1.52;;;13.10;99.90;;;;;;5093537;28;20377;-77
2023/09/12 04:19:14;;;;;;;4.47;2.20;;;13.10;99.90;;;;;;5094001;28;20341;-77
2023/09/12 04:21:40;;;;;;;4.93;2.40;;;13.10;99.90;;;;;;5093102;28;20051;-77
2023/09/12 04:24:07;;;;;;;6.50;2.20;;;13.00;99.90;;;;;;5093899;28;20028;-77
2023/09/12 04:26:33;;;;;;;5.13;2.15;;;13.00;99.90;;;;;;5093113;28;20360;-77
2023/09/12 04:28:59;;;;;;;4.80;1.77;;;13.00;99.90;;;;;;5093949;28;20022;-77
2023/09/12 04:31:25;;;;;;;4.35;2.60;;;13.00;99.90;;;;;;5075503;28;20097;-77
2023/09/12 04:33:52;;;;;;;5.53;2.38;;;13.00;99.90;;;;;;5093118;28;20024;-77
2023/09/12 04:36:18;;;;;;;2.95;2.22;;;13.00;99.90;;;;;;5093243;28;20059;-76
2023/09/12 04:38:43;;;;;;;6.00;2.83;;;13.10;99.90;;;;;;5093096;28;20465;-76
2023/09/12 04:41:15;;;;;;;7.20;2.80;;;13.10;99.90;;;;;;5093441;28;20055;-76
2023/09/12 04:43:41;;;;;;;6.72;2.40;;;13.00;99.90;;;;;;5092408;28;20066;-76
2023/09/12 04:46:07;;;;;;;5.40;2.42;;;13.00;99.90;;;;;;5093128;28;20051;-75
2023/09/12 04:48:32;;;;;;;6.70;2.58;;;13.00;99.90;;;;;;5092494;28;20422;-77
2023/09/12 04:50:58;;;;;;;9.13;2.75;;;13.00;99.90;;;;;;5092952;28;20417;-75
2023/09/12 04:53:24;;;;;;;3.13;2.30;;;13.00;99.90;;;;;;5093252;28;20364;-76
2023/09/12 04:55:53;;;;;;;8.10;2.70;;;13.00;99.90;;;;;;5092714;28;20016;-76
2023/09/12 04:58:18;;;;;;;5.60;1.92;;;13.00;99.90;;;;;;5092978;28;20028;-76
2023/09/12 05:00:45;;;;;;;7.18;2.15;;;13.00;99.90;;;;;;5092002;28;20036;-77
2023/09/12 05:03:11;;;;;;;6.55;1.90;;;12.90;99.90;;;;;;5074324;28;20118;-77
2023/09/12 05:05:37;;;;;;;6.57;1.98;;;12.90;99.90;;;;;;5092167;28;20030;-77
2023/09/12 05:08:03;;;;;;;3.72;1.40;;;12.90;99.90;;;;;;5092905;28;20115;-77
2023/09/12 05:10:30;;;;;;;4.90;1.80;;;12.90;99.90;;;;;;5092933;28;20028;-77
2023/09/12 05:12:55;;;;;;;3.22;2.00;;;12.90;99.90;;;;;;5092435;28;20040;-76
2023/09/12 05:15:21;;;;;;;6.47;1.90;;;12.90;99.90;;;;;;5093057;28;20028;-76
2023/09/12 05:17:47;;;;;;;6.63;1.88;;;12.80;99.90;;;;;;5092126;28;20043;-76
2023/09/12 05:20:13;;;;;;;7.38;1.85;;;12.80;99.90;;;;;;5092767;28;20028;-76
2023/09/12 05:22:38;;;;;;;5.60;1.70;;;12.80;99.90;;;;;;5091878;28;20337;-77
2023/09/12 05:25:04;;;;;;;5.80;1.63;;;12.70;99.90;;;;;;5092340;28;20025;-77
2023/09/12 05:27:30;;;;;;;6.35;1.95;;;12.70;99.90;;;;;;5092384;28;20466;-77
2023/09/12 05:29:56;;;;;;;6.97;1.80;;;12.70;99.90;;;;;;5091969;28;20024;-77
2023/09/12 05:32:21;;;;;;;4.30;1.50;;;12.70;99.90;;;;;;5092522;28;20097;-77
2023/09/12 05:34:49;;;;;;;5.03;1.90;;;12.70;99.90;;;;;;5090864;28;20020;-77
2023/09/12 05:37:15;;;;;;;3.63;1.50;;;12.70;99.90;;;;;;5093065;28;20028;-77
2023/09/12 05:39:41;;;;;;;5.47;1.50;;;12.70;99.90;;;;;;5092441;28;20535;-77
2023/09/12 05:42:07;;;;;;;4.75;1.48;;;12.70;99.90;;;;;;5108535;28;20074;-77
2023/09/12 05:44:33;;;;;;;7.65;1.60;;;12.60;99.90;;;;;;5092200;28;20103;-77
2023/09/12 05:46:58;;;;;;;7.55;1.80;;;12.60;99.90;;;;;;5091860;28;20140;-77
2023/09/12 05:49:24;;;;;;;7.72;1.60;;;12.60;99.90;;;;;;5092413;28;20024;-76
2023/09/12 05:51:50;;;;;;;6.72;2.00;;;12.60;99.90;;;;;;5091723;28;20117;-77
2023/09/12 05:54:17;;;;;;;4.35;1.50;;;12.60;99.90;;;;;;5092097;28;20100;-76
2023/09/12 05:56:42;;;;;;;5.22;1.52;;;12.60;99.90;;;;;;5091426;28;20107;-76
2023/09/12 05:59:08;;;;;;;12.45;1.83;;;12.50;99.90;;;;;;5091878;28;20132;-77
2023/09/12 06:01:34;;;;;;;4.63;1.90;;;12.50;99.90;;;;;;5091497;28;20032;-78
2023/09/12 06:04:00;;;;;;;6.10;1.60;;;12.50;99.90;;;;;;5091652;28;20031;-77
2023/09/12 06:06:25;;;;;;;6.85;1.60;;;12.50;99.90;;;;;;5091568;28;20107;-77
2023/09/12 06:08:53;;;;;;;5.22;2.00;;;12.50;99.90;;;;;;5091037;28;20412;-77
2023/09/12 06:11:19;;;;;;;7.13;1.40;;;12.40;99.90;;;;;;5091639;28;20131;-76
2023/09/12 06:13:45;;;;;;;5.40;2.28;;;12.40;99.90;;;;;;5090925;28;20096;-77
2023/09/12 06:16:10;;;;;;;11.65;1.75;;;12.40;99.90;;;;;;5091239;28;20070;-74
2023/09/12 06:18:36;;;;;;;10.55;1.63;;;12.40;99.90;;;;;;5090863;28;20346;-77
2023/09/12 06:21:04;;;;;;;7.40;2.05;;;12.30;99.90;;;;;;5091419;28;20103;-76
2023/09/12 06:23:30;;;;;;;5.78;1.33;;;12.30;99.90;;;;;;5091204;28;20551;-76
2023/09/12 06:25:56;;;;;;;5.70;1.65;;;12.40;99.90;;;;;;5090496;28;20200;-76
2023/09/12 06:28:26;;;;;;;3.15;1.63;;;12.40;99.90;;;;;;5090986;28;20087;-76
2023/09/12 06:30:52;;;;;;;4.03;1.60;;;12.40;99.90;;;;;;5090703;28;20035;-77
2023/09/12 06:33:18;;;;;;;3.75;1.52;;;12.40;99.90;;;;;;5091149;28;20106;-76
2023/09/12 06:35:44;;;;;;;8.43;1.80;;;12.50;99.90;;;;;;5090464;28;20458;-76
2023/09/12 06:38:09;;;;;;;9.18;2.00;;;12.50;99.90;;;;;;5091292;28;20082;-77
2023/09/12 06:40:35;;;;;;;8.43;1.88;;;12.50;99.90;;;;;;5090885;28;20082;-77
2023/09/12 06:43:01;;;;;;;4.15;1.42;;;12.50;99.90;;;;;;5090755;28;20028;-77
2023/09/12 06:45:26;;;;;;;8.98;1.40;;;12.50;99.90;;;;;;5090828;28;20379;-77
2023/09/12 06:47:52;;;;;;;5.13;1.40;;;12.50;99.90;;;;;;5090382;28;20028;-77
2023/09/12 06:50:18;;;;;;;3.85;1.77;;;12.50;99.90;;;;;;5090592;28;20388;-77
2023/09/12 06:52:43;;;;;;;5.95;1.70;;;12.40;99.90;;;;;;5090450;28;20028;-78
2023/09/12 06:55:09;;;;;;;6.85;1.42;;;12.50;99.90;;;;;;5090817;28;20147;-77
2023/09/12 06:57:35;;;;;;;5.90;1.48;;;12.50;99.90;;;;;;5090616;28;20028;-77
2023/09/12 07:00:00;;;;;;;6.80;1.50;;;12.50;99.90;;;;;;5090067;28;20390;-77
2023/09/12 07:02:27;;;;;;;8.55;1.80;;;12.50;99.90;;;;;;5072456;28;20142;-77
2023/09/12 07:04:52;;;;;;;4.10;1.45;;;12.60;99.90;;;;;;5090385;28;20113;-77
2023/09/12 07:07:20;;;;;;;4.70;1.23;;;12.60;99.90;;;;;;5090716;28;20059;-77
2023/09/12 07:09:46;;;;;;;3.83;1.52;;;12.60;99.90;;;;;;5089589;28;20387;-77
2023/09/12 07:12:12;;;;;;;6.38;1.80;;;12.60;99.90;;;;;;5072142;28;20036;-76
2023/09/12 07:14:37;;;;;;;4.72;1.40;;;12.70;99.90;;;;;;5090137;28;20105;-76
2023/09/12 07:17:06;;;;;;;7.28;1.65;;;12.60;99.90;;;;;;5090247;28;20025;-76
2023/09/12 07:19:31;;;;;;;4.28;1.40;;;12.70;99.90;;;;;;5090329;28;20020;-76
2023/09/12 07:21:57;;;;;;;5.25;1.65;;;12.70;99.90;;;;;;5089793;28;20612;-76
2023/09/12 07:24:27;;;;;;;4.28;1.40;;;12.60;99.90;;;;;;5072603;28;20024;-77
2023/09/12 07:26:53;;;;;;;4.28;1.40;;;12.60;99.90;;;;;;5094118;28;20437;-76
2023/09/12 07:29:19;;;;;;;5.70;1.50;;;12.60;99.90;;;;;;5075920;28;20384;-76
2023/09/12 07:31:45;;;;;;;5.00;1.55;;;12.50;99.90;;;;;;5094213;28;20035;-78
2023/09/12 07:34:11;;;;;;;12.07;1.50;;;12.50;99.90;;;;;;5094282;28;20111;-76
2023/09/12 07:36:38;;;;;;;4.47;1.45;;;12.50;99.90;;;;;;5094050;28;20024;-76
2023/09/12 07:39:04;;;;;;;3.10;1.30;;;12.40;99.90;;;;;;5094076;28;20028;-76
2023/09/12 07:41:30;;;;;;;8.85;1.55;;;12.40;99.90;;;;;;5093651;28;20046;-76
2023/09/12 07:43:56;;;;;;;13.70;1.63;;;12.40;99.90;;;;;;5093342;28;20035;-77
2023/09/12 07:46:21;;;;;;;6.60;1.73;;;12.50;99.90;;;;;;5093730;28;20056;-77
2023/09/12 07:48:47;;;;;;;5.55;1.33;;;12.70;99.90;;;;;;5075206;28;20067;-77
2023/09/12 07:51:17;;;;;;;6.88;1.58;;;12.70;99.90;;;;;;5075786;28;20026;-77
2023/09/12 07:53:43;;;;;;;4.53;1.52;;;12.80;99.90;;;;;;5093423;28;20138;-76
2023/09/12 07:56:12;;;;;;;6.35;1.38;;;13.00;99.90;;;;;;5094089;28;20028;-76
2023/09/12 07:58:38;;;;;;;3.17;1.33;;;13.10;99.90;;;;;;5094341;28;20024;-76
2023/09/12 08:01:13;;;;;;;5.88;1.45;;;13.30;99.90;;;;;;5093163;28;20031;-77
2023/09/12 08:03:41;;;;;;;6.65;1.40;;;13.50;99.90;;;;;;5093494;28;20042;-77
2023/09/12 08:06:07;;;;;;;6.15;1.70;;;13.60;99.90;;;;;;5093826;28;20024;-77
2023/09/12 08:08:33;;;;;;;6.95;1.58;;;13.80;99.90;;;;;;5093743;28;20034;-76
2023/09/12 08:10:59;;;;;;;7.75;1.50;;;13.90;99.90;;;;;;5074800;28;20020;-77
2023/09/12 08:13:29;;;;;;;5.32;1.27;;;14.00;99.90;;;;;;5094940;28;20579;-76
2023/09/12 08:15:55;;;;;;;5.00;1.27;;;14.10;99.90;;;;;;5092940;28;20103;-77
2023/09/12 08:18:21;;;;;;;5.70;1.45;;;14.20;99.90;;;;;;5093581;28;20028;-76
2023/09/12 08:20:47;;;;;;;5.80;1.52;;;14.30;99.90;;;;;;5093246;28;20518;-78
2023/09/12 08:23:13;;;;;;;4.60;1.70;;;14.40;99.90;;;;;;5093568;28;20089;-78
2023/09/12 08:25:39;;;;;;;5.03;1.10;;;14.50;99.90;;;;;;5093711;28;20035;-78
2023/09/12 08:28:05;;;;;;;4.80;1.70;;;14.50;99.90;;;;;;5092796;28;20028;-77
2023/09/12 08:30:31;;;;;;;4.68;1.73;;;14.50;99.90;;;;;;5093448;28;20031;-78
2023/09/12 08:32:57;;;;;;;5.47;1.33;;;14.30;99.90;;;;;;5093005;28;20055;-78
2023/09/12 08:35:22;;;;;;;10.68;1.35;;;14.40;99.90;;;;;;5092922;28;20158;-78
2023/09/12 08:37:48;;;;;;;5.35;1.40;;;14.40;99.90;;;;;;5092218;28;20426;-78
2023/09/12 08:40:14;;;;;;;7.28;1.45;;;14.40;99.90;;;;;;5092952;28;20369;-78
2023/09/12 08:42:41;;;;;;;2.85;1.20;;;14.50;99.90;;;;;;5093506;28;20036;-78
2023/09/12 08:45:18;;;;;;;5.45;1.20;;;14.60;99.90;;;;;;5092347;28;20024;-77
2023/09/12 08:47:46;;;;;;;6.03;1.20;;;14.50;99.90;;;;;;5093176;28;20048;-78
2023/09/12 08:50:13;;;;;;;4.97;1.10;;;14.60;99.90;;;;;;5093061;28;20036;-77
2023/09/12 08:52:41;;;;;;;4.75;1.20;;;14.70;99.90;;;;;;5093190;28;20361;-76
2023/09/12 08:55:08;;;;;;;5.95;1.17;;;14.80;99.90;;;;;;5074763;28;20024;-78
2023/09/12 08:57:36;;;;;;;6.38;1.48;;;14.80;99.90;;;;;;5093968;28;20081;-77
2023/09/12 09:00:09;;;;;;;3.22;1.30;;;14.80;99.90;;;;;;5093105;28;20032;-78
2023/09/12 09:02:38;;;;;;;5.85;1.05;;;14.80;99.90;;;;;;5093224;28;20036;-78
2023/09/12 09:05:05;;;;;;;7.03;1.52;;;15.00;99.90;;;;;;5092302;28;20376;-78
2023/09/12 09:07:38;;;;;;;6.32;1.33;;;15.10;99.90;;;;;;5092491;28;20032;-78
2023/09/12 09:10:09;;;;;;;7.65;1.65;;;15.10;99.90;;;;;;5092679;28;20020;-78
2023/09/12 09:12:36;;;;;;;6.32;1.45;;;15.20;99.90;;;;;;5092353;28;20039;-77
2023/09/12 09:15:24;;;;;;;4.40;1.13;;;15.20;99.90;;;;;;5091618;28;20039;-77
2023/09/12 09:17:52;;;;;;;8.55;1.10;;;15.20;99.90;;;;;;5091514;28;20024;-78
2023/09/12 09:20:34;;;;;;;5.95;1.10;;;15.20;99.90;;;;;;5092165;28;20027;-77
2023/09/12 09:23:10;;;;;;;5.80;1.20;;;15.20;99.90;;;;;;5091354;28;20028;-77
2023/09/12 09:25:41;;;;;;;3.85;1.23;;;15.30;99.90;;;;;;5091983;28;20028;-77
2023/09/12 09:28:20;;;;;;;5.07;1.20;;;15.30;99.90;;;;;;5091309;28;20020;-77
2023/09/12 09:30:51;;;;;;;3.42;1.23;;;15.20;99.90;;;;;;5091295;28;20414;-78
2023/09/12 09:33:17;;;;;;;3.85;0.77;;;15.20;99.90;;;;;;5092093;28;20036;-77
2023/09/12 09:35:46;;;;;;;2.88;1.10;;;15.20;99.90;;;;;;5091902;28;20034;-76
2023/09/12 09:38:16;;;;;;;7.45;1.40;;;15.20;99.90;;;;;;5091332;28;20423;-76
2023/09/12 09:40:43;;;;;;;3.28;1.00;;;15.20;99.90;;;;;;5074526;28;20103;-77
2023/09/12 09:43:09;;;;;;;5.00;1.08;;;15.20;99.90;;;;;;5091085;28;20114;-76
2023/09/12 09:45:45;;;;;;;6.82;1.20;;;15.20;99.90;;;;;;5091766;28;20116;-76
2023/09/12 09:48:21;;;;;;;6.20;1.00;;;15.30;99.90;;;;;;5090668;28;20512;-77
2023/09/12 09:50:47;;;;;;;5.75;1.30;;;15.20;99.90;;;;;;5091188;28;20020;-79
2023/09/12 09:53:13;;;;;;;8.15;1.02;;;15.40;99.90;;;;;;5090945;28;20050;-77
2023/09/12 09:55:39;;;;;;;4.03;1.00;;;15.40;99.90;;;;;;5091029;28;20458;-77
2023/09/12 09:58:08;;;;;;;6.28;0.98;;;15.50;99.90;;;;;;5090741;28;20056;-77
2023/09/12 10:00:37;;;;;;;5.85;1.38;;;15.40;99.90;;;;;;5091414;28;20047;-77
2023/09/12 10:03:06;;;;;;;7.18;1.85;;;15.40;99.90;;;;;;5090464;28;20067;-78
2023/09/12 10:05:38;;;;;;;7.85;1.25;;;15.40;99.90;;;;;;5091135;28;20032;-77
2023/09/12 10:08:06;;;;;;;2.90;1.17;;;15.40;99.90;;;;;;5090219;28;20457;-77
2023/09/12 10:10:34;;;;;;;2.83;1.05;;;15.40;99.90;;;;;;5091348;28;20024;-77
2023/09/12 10:13:03;;;;;;;3.67;0.88;;;15.50;99.90;;;;;;5090378;28;20031;-76
2023/09/12 10:15:33;;;;;;;4.68;1.05;;;15.60;99.90;;;;;;5091342;28;20043;-77
2023/09/12 10:18:02;;;;;;;3.83;1.30;;;15.60;99.90;;;;;;5071990;28;20116;-76
2023/09/12 10:20:49;;;;;;;3.25;0.80;;;15.70;99.90;;;;;;5091086;28;20162;-77
2023/09/12 10:23:27;;;;;;;4.18;1.05;;;15.80;99.90;;;;;;5090830;28;20051;-78
2023/09/12 10:25:54;;;;;;;3.17;0.90;;;16.00;99.90;;;;;;5090661;28;20028;-78
2023/09/12 10:28:21;;;;;;;4.88;1.42;;;16.10;99.90;;;;;;5090783;28;20066;-78
2023/09/12 10:30:48;;;;;;;4.10;0.90;;;16.20;99.90;;;;;;5090615;28;20024;-78
2023/09/12 10:33:16;;;;;;;3.42;1.00;;;16.20;99.90;;;;;;5090813;28;20109;-77
2023/09/12 10:35:44;;;;;;;5.80;1.17;;;16.30;99.90;;;;;;5090309;28;20028;-78
2023/09/12 10:38:13;;;;;;;2.72;1.00;;;16.40;99.90;;;;;;5090151;28;20070;-77
2023/09/12 10:40:41;;;;;;;6.88;1.05;;;16.40;99.90;;;;;;5090405;28;20035;-77
2023/09/12 10:43:09;;;;;;;8.15;1.23;;;16.40;99.90;;;;;;5089722;28;20173;-76
2023/09/12 10:45:39;;;;;;;2.20;1.10;;;16.40;99.90;;;;;;5090259;28;20027;-77
2023/09/12 10:48:04;;;;;;;5.05;0.90;;;16.30;99.90;;;;;;5069407;28;20455;-77
2023/09/12 10:50:30;;;;;;;4.00;0.85;;;16.30;99.90;;;;;;5070583;28;20071;-76
2023/09/12 10:53:07;;;;;;;3.70;1.20;;;16.30;99.90;;;;;;5070649;28;20029;-77
2023/09/12 10:55:33;;;;;;;2.50;0.60;;;16.20;99.90;;;;;;5072826;28;20024;-77
2023/09/12 10:58:04;;;;;;;5.65;1.40;;;16.10;99.90;;;;;;5070356;28;20078;-77
2023/09/12 11:00:33;;;;;;;1.55;0.98;;;16.20;99.90;;;;;;5071454;28;20021;-77
2023/09/12 11:03:19;;;;;;;9.30;1.50;;;16.10;99.90;;;;;;5071230;28;20036;-79
2023/09/12 11:05:53;;;;;;;3.63;1.13;;;16.20;99.90;;;;;;5069956;28;20057;-78
2023/09/12 11:08:18;;;;;;;3.58;0.98;;;16.20;99.90;;;;;;5068788;28;20449;-78
2023/09/12 11:10:44;;;;;;;3.85;1.20;;;16.20;99.90;;;;;;5070061;28;20075;-79
2023/09/12 11:13:18;;;;;;;4.93;1.10;;;16.30;99.90;;;;;;5067814;28;20439;-78
2023/09/12 11:16:10;;;;;;;2.50;0.95;;;16.20;99.90;;;;;;5069817;28;20063;-77
2023/09/12 11:19:18;;;;;;;1.63;0.68;;;16.30;99.90;;;;;;5068482;28;20024;-77
2023/09/12 11:21:45;;;;;;;5.18;0.90;;;16.40;99.90;;;;;;5069625;28;20102;-77
2023/09/12 11:24:11;;;;;;;5.07;0.80;;;16.50;99.90;;;;;;5068959;28;20025;-77
2023/09/12 11:27:12;;;;;;;3.78;1.00;;;16.50;99.90;;;;;;5070002;28;20030;-78
2023/09/12 11:29:40;;;;;;;3.00;0.90;;;16.70;99.90;;;;;;5007609;28;20426;-78
2023/09/12 11:32:07;;;;;;;5.25;1.67;;;16.80;99.90;;;;;;5056722;28;20558;-79
2023/09/12 11:34:38;;;;;;;3.35;0.98;;;16.80;99.90;;;;;;5069699;28;20390;-78
2023/09/12 11:37:04;;;;;;;3.35;0.98;;;16.70;99.90;;;;;;5069281;28;20024;-78
2023/09/12 11:39:36;;;;;;;4.75;1.23;;;16.70;99.90;;;;;;5069508;28;20035;-78
2023/09/12 11:42:03;;;;;;;3.38;1.10;;;16.70;99.90;;;;;;5067775;28;20032;-78
2023/09/12 11:44:31;;;;;;;6.13;1.20;;;16.60;99.90;;;;;;5069784;28;20048;-76
2023/09/12 11:47:09;;;;;;;3.45;0.90;;;16.50;99.90;;;;;;5080694;28;20126;-78
2023/09/12 11:49:39;;;;;;;2.90;1.13;;;16.40;99.90;;;;;;5090262;28;20039;-78
2023/09/12 11:52:13;;;;;;;4.78;1.10;;;16.20;99.90;;;;;;5071411;28;20028;-78
2023/09/12 11:54:43;;;;;;;3.88;1.27;;;16.20;99.90;;;;;;5090094;28;20377;-79
2023/09/12 11:57:10;;;;;;;3.22;0.98;;;16.20;99.90;;;;;;5089422;28;20093;-79
2023/09/12 11:59:40;;;;;;;3.47;1.00;;;16.20;99.90;;;;;;5089867;28;20459;-79
2023/09/12 12:02:08;;;;;;;2.42;0.95;;;16.20;99.90;;;;;;5089383;28;20047;-78
2023/09/12 12:04:34;;;;;;;2.78;1.13;;;16.30;99.90;;;;;;5090204;28;20017;-78
2023/09/12 12:07:07;;;;;;;6.82;1.60;;;16.40;99.90;;;;;;5089904;28;20024;-77
2023/09/12 12:09:34;;;;;;;4.85;1.00;;;16.50;99.90;;;;;;5090470;28;20032;-79
2023/09/12 12:12:12;;;;;;;6.57;1.35;;;16.70;99.90;;;;;;5092601;28;20500;-79
2023/09/12 12:14:40;;;;;;;5.00;1.15;;;16.70;99.90;;;;;;5093872;28;20016;-78
2023/09/12 12:17:10;;;;;;;2.33;1.17;;;16.80;99.90;;;;;;5093329;28;20050;-79
2023/09/12 12:19:39;;;;;;;3.15;0.82;;;16.70;99.90;;;;;;5093835;28;20024;-78
2023/09/12 12:22:06;;;;;;;6.25;1.05;;;16.80;99.90;;;;;;5093001;28;20077;-79
2023/09/12 12:25:05;;;;;;;3.67;1.10;;;16.90;99.90;;;;;;5094424;28;20114;-79
2023/09/12 12:27:31;;;;;;;1.92;0.93;;;16.80;99.90;;;;;;5079450;28;20093;-79
2023/09/12 12:29:56;;;;;;;5.30;1.00;;;16.80;99.90;;;;;;5092954;28;20465;-79
2023/09/12 12:32:22;;;;;;;2.42;1.02;;;16.90;99.90;;;;;;5093727;28;20028;-76
2023/09/12 12:34:49;;;;;;;4.85;1.23;;;16.90;99.90;;;;;;5092584;28;20354;-77
2023/09/12 12:37:15;;;;;;;5.63;1.15;;;16.90;99.90;;;;;;5093001;28;20024;-78
2023/09/12 12:39:43;;;;;;;6.57;1.08;;;16.70;99.90;;;;;;5093388;28;20031;-80
2023/09/12 12:42:09;;;;;;;5.75;1.15;;;16.40;99.90;;;;;;5092756;28;20108;-79
2023/09/12 12:44:36;;;;;;;6.18;1.20;;;16.20;99.90;;;;;;5092853;28;20138;-78
2023/09/12 12:47:07;;;;;;;4.30;1.05;;;16.20;99.90;;;;;;5092703;28;20357;-78
2023/09/12 12:49:39;;;;;;;4.72;1.20;;;16.40;99.90;;;;;;5093727;28;20028;-78